sensor_id;sensor_type;location;lat;lon;timestamp;P1;durP1;ratioP1;P2;durP2;ratioP2
62574;SDS011;53112;45.602;11.904;2023-02-24T00:01:26;96.18;;;43.70;;
62574;SDS011;53112;45.602;11.904;2023-02-24T00:03:56;85.72;;;41.05;;
62574;SDS011;53112;45.602;11.904;2023-02-24T00:06:24;81.53;;;40.65;;
62574;SDS011;53112;45.602;11.904;2023-02-24T00:09:01;82.15;;;40.78;;
62574;SDS011;53112;45.602;11.904;2023-02-24T00:11:30;93.43;;;44.60;;
62574;SDS011;53112;45.602;11.904;2023-02-24T00:13:57;93.93;;;42.22;;
62574;SDS011;53112;45.602;11.904;2023-02-24T00:16:24;81.03;;;39.17;;
62574;SDS011;53112;45.602;11.904;2023-02-24T00:18:51;83.18;;;41.78;;
62574;SDS011;53112;45.602;11.904;2023-02-24T00:21:18;79.55;;;38.75;;
62574;SDS011;53112;45.602;11.904;2023-02-24T00:23:45;87.10;;;41.80;;
62574;SDS011;53112;45.602;11.904;2023-02-24T00:26:12;83.72;;;40.88;;
62574;SDS011;53112;45.602;11.904;2023-02-24T00:28:40;81.97;;;39.55;;
62574;SDS011;53112;45.602;11.904;2023-02-24T00:31:08;84.13;;;40.65;;
62574;SDS011;53112;45.602;11.904;2023-02-24T00:33:43;85.05;;;41.40;;
62574;SDS011;53112;45.602;11.904;2023-02-24T00:36:12;77.53;;;38.72;;
62574;SDS011;53112;45.602;11.904;2023-02-24T00:41:16;75.35;;;37.40;;
62574;SDS011;53112;45.602;11.904;2023-02-24T00:43:44;83.75;;;40.10;;
62574;SDS011;53112;45.602;11.904;2023-02-24T00:46:17;80.40;;;39.60;;
62574;SDS011;53112;45.602;11.904;2023-02-24T00:48:45;91.40;;;43.65;;
62574;SDS011;53112;45.602;11.904;2023-02-24T00:51:14;82.70;;;42.28;;
62574;SDS011;53112;45.602;11.904;2023-02-24T00:53:42;78.05;;;39.95;;
62574;SDS011;53112;45.602;11.904;2023-02-24T00:56:09;82.53;;;41.03;;
62574;SDS011;53112;45.602;11.904;2023-02-24T00:58:40;71.18;;;36.70;;
62574;SDS011;53112;45.602;11.904;2023-02-24T01:01:12;81.07;;;39.75;;
62574;SDS011;53112;45.602;11.904;2023-02-24T01:03:49;86.50;;;40.05;;
62574;SDS011;53112;45.602;11.904;2023-02-24T01:06:19;92.10;;;42.75;;
62574;SDS011;53112;45.602;11.904;2023-02-24T01:08:47;78.78;;;37.70;;
62574;SDS011;53112;45.602;11.904;2023-02-24T01:11:17;87.03;;;40.47;;
62574;SDS011;53112;45.602;11.904;2023-02-24T01:14:05;72.53;;;35.83;;
62574;SDS011;53112;45.602;11.904;2023-02-24T01:16:33;66.78;;;33.45;;
62574;SDS011;53112;45.602;11.904;2023-02-24T01:19:00;66.70;;;33.95;;
62574;SDS011;53112;45.602;11.904;2023-02-24T01:21:26;67.60;;;33.35;;
62574;SDS011;53112;45.602;11.904;2023-02-24T01:23:53;71.00;;;35.97;;
62574;SDS011;53112;45.602;11.904;2023-02-24T01:26:19;101.05;;;44.83;;
62574;SDS011;53112;45.602;11.904;2023-02-24T01:28:45;74.47;;;37.03;;
62574;SDS011;53112;45.602;11.904;2023-02-24T01:31:12;76.10;;;37.55;;
62574;SDS011;53112;45.602;11.904;2023-02-24T01:33:45;67.88;;;33.38;;
62574;SDS011;53112;45.602;11.904;2023-02-24T01:36:16;78.25;;;37.53;;
62574;SDS011;53112;45.602;11.904;2023-02-24T01:38:44;77.47;;;35.72;;
62574;SDS011;53112;45.602;11.904;2023-02-24T01:41:13;77.88;;;37.95;;
62574;SDS011;53112;45.602;11.904;2023-02-24T01:46:20;66.25;;;34.15;;
62574;SDS011;53112;45.602;11.904;2023-02-24T01:48:50;60.47;;;32.22;;
62574;SDS011;53112;45.602;11.904;2023-02-24T01:51:22;64.90;;;33.42;;
62574;SDS011;53112;45.602;11.904;2023-02-24T01:53:49;65.15;;;33.08;;
62574;SDS011;53112;45.602;11.904;2023-02-24T01:56:15;67.80;;;34.60;;
62574;SDS011;53112;45.602;11.904;2023-02-24T01:58:41;58.60;;;30.20;;
62574;SDS011;53112;45.602;11.904;2023-02-24T02:01:08;58.00;;;31.48;;
62574;SDS011;53112;45.602;11.904;2023-02-24T02:03:38;63.85;;;33.67;;
62574;SDS011;53112;45.602;11.904;2023-02-24T02:06:07;68.68;;;34.85;;
62574;SDS011;53112;45.602;11.904;2023-02-24T02:08:37;61.15;;;31.40;;
62574;SDS011;53112;45.602;11.904;2023-02-24T02:11:08;78.47;;;39.38;;
62574;SDS011;53112;45.602;11.904;2023-02-24T02:13:38;79.82;;;37.90;;
62574;SDS011;53112;45.602;11.904;2023-02-24T02:32:53;80.60;;;40.45;;
62574;SDS011;53112;45.602;11.904;2023-02-24T02:38:34;76.88;;;37.78;;
62574;SDS011;53112;45.602;11.904;2023-02-24T02:44:21;77.85;;;37.25;;
62574;SDS011;53112;45.602;11.904;2023-02-24T02:47:09;71.03;;;35.95;;
62574;SDS011;53112;45.602;11.904;2023-02-24T02:49:53;69.57;;;34.65;;
62574;SDS011;53112;45.602;11.904;2023-02-24T02:52:34;65.55;;;33.47;;
62574;SDS011;53112;45.602;11.904;2023-02-24T02:57:33;63.30;;;32.70;;
62574;SDS011;53112;45.602;11.904;2023-02-24T03:00:05;68.47;;;34.45;;
62574;SDS011;53112;45.602;11.904;2023-02-24T03:02:42;65.38;;;32.30;;
62574;SDS011;53112;45.602;11.904;2023-02-24T03:05:13;68.88;;;33.55;;
62574;SDS011;53112;45.602;11.904;2023-02-24T03:07:46;68.32;;;34.42;;
62574;SDS011;53112;45.602;11.904;2023-02-24T03:10:22;91.18;;;43.30;;
62574;SDS011;53112;45.602;11.904;2023-02-24T03:12:52;78.65;;;38.58;;
62574;SDS011;53112;45.602;11.904;2023-02-24T03:15:21;83.82;;;40.38;;
62574;SDS011;53112;45.602;11.904;2023-02-24T03:18:24;86.53;;;42.10;;
62574;SDS011;53112;45.602;11.904;2023-02-24T03:20:56;88.35;;;42.28;;
62574;SDS011;53112;45.602;11.904;2023-02-24T03:23:32;100.35;;;47.55;;
62574;SDS011;53112;45.602;11.904;2023-02-24T03:26:24;99.30;;;45.63;;
62574;SDS011;53112;45.602;11.904;2023-02-24T03:29:33;85.88;;;41.90;;
62574;SDS011;53112;45.602;11.904;2023-02-24T03:31:58;85.63;;;39.83;;
62574;SDS011;53112;45.602;11.904;2023-02-24T03:37:03;78.68;;;38.00;;
62574;SDS011;53112;45.602;11.904;2023-02-24T03:39:29;76.13;;;38.42;;
62574;SDS011;53112;45.602;11.904;2023-02-24T03:42:01;77.63;;;40.00;;
62574;SDS011;53112;45.602;11.904;2023-02-24T03:44:31;71.07;;;37.05;;
62574;SDS011;53112;45.602;11.904;2023-02-24T03:46:57;83.78;;;40.03;;
62574;SDS011;53112;45.602;11.904;2023-02-24T03:49:25;61.13;;;32.05;;
62574;SDS011;53112;45.602;11.904;2023-02-24T03:52:02;66.20;;;34.10;;
62574;SDS011;53112;45.602;11.904;2023-02-24T03:57:50;65.85;;;34.45;;
62574;SDS011;53112;45.602;11.904;2023-02-24T04:02:40;73.80;;;36.35;;
62574;SDS011;53112;45.602;11.904;2023-02-24T04:05:14;79.50;;;38.05;;
62574;SDS011;53112;45.602;11.904;2023-02-24T04:07:54;78.68;;;39.17;;
62574;SDS011;53112;45.602;11.904;2023-02-24T04:11:02;88.80;;;42.00;;
62574;SDS011;53112;45.602;11.904;2023-02-24T04:16:26;76.97;;;38.90;;
62574;SDS011;53112;45.602;11.904;2023-02-24T04:19:02;77.45;;;36.58;;
62574;SDS011;53112;45.602;11.904;2023-02-24T04:21:31;78.63;;;38.05;;
62574;SDS011;53112;45.602;11.904;2023-02-24T04:23:59;77.32;;;36.58;;
62574;SDS011;53112;45.602;11.904;2023-02-24T04:26:32;72.05;;;37.72;;
62574;SDS011;53112;45.602;11.904;2023-02-24T04:29:00;90.07;;;43.13;;
62574;SDS011;53112;45.602;11.904;2023-02-24T04:31:27;78.30;;;41.15;;
62574;SDS011;53112;45.602;11.904;2023-02-24T04:33:55;81.40;;;41.33;;
62574;SDS011;53112;45.602;11.904;2023-02-24T04:36:21;79.25;;;38.58;;
62574;SDS011;53112;45.602;11.904;2023-02-24T04:38:49;82.63;;;41.30;;
62574;SDS011;53112;45.602;11.904;2023-02-24T04:41:15;68.45;;;36.40;;
62574;SDS011;53112;45.602;11.904;2023-02-24T04:43:48;70.38;;;36.10;;
62574;SDS011;53112;45.602;11.904;2023-02-24T04:46:15;78.82;;;38.88;;
62574;SDS011;53112;45.602;11.904;2023-02-24T04:48:42;77.15;;;37.33;;
62574;SDS011;53112;45.602;11.904;2023-02-24T04:51:08;78.63;;;37.88;;
62574;SDS011;53112;45.602;11.904;2023-02-24T04:53:34;76.90;;;36.22;;
62574;SDS011;53112;45.602;11.904;2023-02-24T04:56:03;76.20;;;37.78;;
62574;SDS011;53112;45.602;11.904;2023-02-24T04:58:37;82.18;;;41.33;;
62574;SDS011;53112;45.602;11.904;2023-02-24T05:01:05;78.38;;;39.92;;
62574;SDS011;53112;45.602;11.904;2023-02-24T05:03:35;84.68;;;42.45;;
62574;SDS011;53112;45.602;11.904;2023-02-24T05:06:02;81.55;;;41.35;;
62574;SDS011;53112;45.602;11.904;2023-02-24T05:08:30;90.13;;;43.28;;
62574;SDS011;53112;45.602;11.904;2023-02-24T05:10:56;79.60;;;40.28;;
62574;SDS011;53112;45.602;11.904;2023-02-24T05:13:26;82.40;;;41.65;;
62574;SDS011;53112;45.602;11.904;2023-02-24T05:16:11;93.65;;;45.33;;
62574;SDS011;53112;45.602;11.904;2023-02-24T05:18:39;100.75;;;46.85;;
62574;SDS011;53112;45.602;11.904;2023-02-24T05:21:13;95.82;;;46.13;;
62574;SDS011;53112;45.602;11.904;2023-02-24T05:23:59;92.40;;;45.17;;
62574;SDS011;53112;45.602;11.904;2023-02-24T05:26:31;93.17;;;45.07;;
62574;SDS011;53112;45.602;11.904;2023-02-24T05:29:00;96.82;;;46.38;;
62574;SDS011;53112;45.602;11.904;2023-02-24T05:31:27;98.63;;;47.70;;
62574;SDS011;53112;45.602;11.904;2023-02-24T05:33:55;97.95;;;46.92;;
62574;SDS011;53112;45.602;11.904;2023-02-24T05:36:24;103.80;;;47.42;;
62574;SDS011;53112;45.602;11.904;2023-02-24T05:38:52;91.53;;;45.38;;
62574;SDS011;53112;45.602;11.904;2023-02-24T05:41:37;95.15;;;47.72;;
62574;SDS011;53112;45.602;11.904;2023-02-24T05:44:07;93.35;;;44.15;;
62574;SDS011;53112;45.602;11.904;2023-02-24T05:46:37;92.25;;;45.97;;
62574;SDS011;53112;45.602;11.904;2023-02-24T05:49:07;90.07;;;44.03;;
62574;SDS011;53112;45.602;11.904;2023-02-24T05:51:38;117.80;;;53.75;;
62574;SDS011;53112;45.602;11.904;2023-02-24T05:54:11;118.03;;;51.22;;
62574;SDS011;53112;45.602;11.904;2023-02-24T05:56:39;106.32;;;51.10;;
62574;SDS011;53112;45.602;11.904;2023-02-24T05:59:09;109.60;;;49.88;;
62574;SDS011;53112;45.602;11.904;2023-02-24T06:01:38;93.00;;;45.97;;
62574;SDS011;53112;45.602;11.904;2023-02-24T06:04:06;95.22;;;44.53;;
62574;SDS011;53112;45.602;11.904;2023-02-24T06:06:34;90.38;;;44.17;;
62574;SDS011;53112;45.602;11.904;2023-02-24T06:09:06;95.82;;;45.97;;
62574;SDS011;53112;45.602;11.904;2023-02-24T06:11:38;100.03;;;46.08;;
62574;SDS011;53112;45.602;11.904;2023-02-24T06:14:05;104.30;;;49.15;;
62574;SDS011;53112;45.602;11.904;2023-02-24T06:16:33;104.15;;;48.75;;
62574;SDS011;53112;45.602;11.904;2023-02-24T06:19:00;98.53;;;46.20;;
62574;SDS011;53112;45.602;11.904;2023-02-24T06:21:26;109.97;;;49.45;;
62574;SDS011;53112;45.602;11.904;2023-02-24T06:23:54;99.45;;;47.65;;
62574;SDS011;53112;45.602;11.904;2023-02-24T06:26:25;105.93;;;51.10;;
62574;SDS011;53112;45.602;11.904;2023-02-24T06:28:56;102.70;;;48.08;;
62574;SDS011;53112;45.602;11.904;2023-02-24T06:31:23;97.90;;;46.33;;
62574;SDS011;53112;45.602;11.904;2023-02-24T06:33:49;96.10;;;44.83;;
62574;SDS011;53112;45.602;11.904;2023-02-24T06:36:18;109.05;;;50.95;;
62574;SDS011;53112;45.602;11.904;2023-02-24T06:38:45;111.40;;;52.08;;
62574;SDS011;53112;45.602;11.904;2023-02-24T06:41:13;121.75;;;53.88;;
62574;SDS011;53112;45.602;11.904;2023-02-24T06:43:41;114.82;;;52.80;;
62574;SDS011;53112;45.602;11.904;2023-02-24T06:46:09;117.55;;;51.63;;
62574;SDS011;53112;45.602;11.904;2023-02-24T06:48:36;124.30;;;55.83;;
62574;SDS011;53112;45.602;11.904;2023-02-24T06:51:05;117.82;;;54.00;;
62574;SDS011;53112;45.602;11.904;2023-02-24T06:53:37;114.50;;;52.83;;
62574;SDS011;53112;45.602;11.904;2023-02-24T06:56:14;120.03;;;54.72;;
62574;SDS011;53112;45.602;11.904;2023-02-24T06:58:46;116.35;;;53.38;;
62574;SDS011;53112;45.602;11.904;2023-02-24T07:01:16;108.63;;;49.63;;
62574;SDS011;53112;45.602;11.904;2023-02-24T07:03:50;107.60;;;50.58;;
62574;SDS011;53112;45.602;11.904;2023-02-24T07:06:26;104.47;;;48.80;;
62574;SDS011;53112;45.602;11.904;2023-02-24T07:08:53;114.35;;;52.70;;
62574;SDS011;53112;45.602;11.904;2023-02-24T07:11:22;103.75;;;50.22;;
62574;SDS011;53112;45.602;11.904;2023-02-24T07:13:48;103.60;;;47.08;;
62574;SDS011;53112;45.602;11.904;2023-02-24T07:16:18;120.93;;;55.10;;
62574;SDS011;53112;45.602;11.904;2023-02-24T07:18:52;129.05;;;60.78;;
62574;SDS011;53112;45.602;11.904;2023-02-24T07:21:29;117.35;;;55.65;;
62574;SDS011;53112;45.602;11.904;2023-02-24T07:24:04;118.55;;;56.17;;
62574;SDS011;53112;45.602;11.904;2023-02-24T07:26:31;112.97;;;54.00;;
62574;SDS011;53112;45.602;11.904;2023-02-24T07:28:58;121.68;;;54.13;;
62574;SDS011;53112;45.602;11.904;2023-02-24T07:31:34;99.70;;;46.95;;
62574;SDS011;53112;45.602;11.904;2023-02-24T07:34:01;107.60;;;49.55;;
62574;SDS011;53112;45.602;11.904;2023-02-24T07:36:27;105.85;;;49.08;;
62574;SDS011;53112;45.602;11.904;2023-02-24T07:39:03;93.13;;;45.70;;
62574;SDS011;53112;45.602;11.904;2023-02-24T07:41:32;103.93;;;49.47;;
62574;SDS011;53112;45.602;11.904;2023-02-24T07:43:58;102.82;;;49.63;;
62574;SDS011;53112;45.602;11.904;2023-02-24T07:46:27;108.72;;;50.67;;
62574;SDS011;53112;45.602;11.904;2023-02-24T07:48:54;116.85;;;54.90;;
62574;SDS011;53112;45.602;11.904;2023-02-24T07:51:25;102.75;;;50.95;;
62574;SDS011;53112;45.602;11.904;2023-02-24T07:53:53;108.50;;;50.17;;
62574;SDS011;53112;45.602;11.904;2023-02-24T07:56:21;101.47;;;50.03;;
62574;SDS011;53112;45.602;11.904;2023-02-24T07:59:04;107.63;;;50.47;;
62574;SDS011;53112;45.602;11.904;2023-02-24T08:01:34;114.95;;;52.65;;
62574;SDS011;53112;45.602;11.904;2023-02-24T08:04:05;112.43;;;50.80;;
62574;SDS011;53112;45.602;11.904;2023-02-24T08:06:37;105.93;;;50.25;;
62574;SDS011;53112;45.602;11.904;2023-02-24T08:09:18;119.22;;;53.95;;
62574;SDS011;53112;45.602;11.904;2023-02-24T08:11:53;105.82;;;49.72;;
62574;SDS011;53112;45.602;11.904;2023-02-24T08:14:20;105.28;;;49.58;;
62574;SDS011;53112;45.602;11.904;2023-02-24T08:16:48;115.22;;;55.13;;
62574;SDS011;53112;45.602;11.904;2023-02-24T08:19:24;117.43;;;54.60;;
62574;SDS011;53112;45.602;11.904;2023-02-24T08:21:59;109.80;;;53.10;;
62574;SDS011;53112;45.602;11.904;2023-02-24T08:24:46;102.78;;;51.22;;
62574;SDS011;53112;45.602;11.904;2023-02-24T08:27:17;112.55;;;52.78;;
62574;SDS011;53112;45.602;11.904;2023-02-24T08:29:47;112.82;;;52.55;;
62574;SDS011;53112;45.602;11.904;2023-02-24T08:32:28;115.95;;;53.50;;
62574;SDS011;53112;45.602;11.904;2023-02-24T08:35:03;105.85;;;51.80;;
62574;SDS011;53112;45.602;11.904;2023-02-24T08:37:34;106.25;;;53.03;;
62574;SDS011;53112;45.602;11.904;2023-02-24T08:40:13;117.43;;;54.17;;
62574;SDS011;53112;45.602;11.904;2023-02-24T08:43:04;122.72;;;55.72;;
62574;SDS011;53112;45.602;11.904;2023-02-24T08:48:24;123.35;;;58.50;;
62574;SDS011;53112;45.602;11.904;2023-02-24T08:51:05;118.60;;;56.22;;
62574;SDS011;53112;45.602;11.904;2023-02-24T08:53:33;110.13;;;52.28;;
62574;SDS011;53112;45.602;11.904;2023-02-24T08:56:00;112.40;;;52.53;;
62574;SDS011;53112;45.602;11.904;2023-02-24T08:58:43;108.07;;;49.97;;
62574;SDS011;53112;45.602;11.904;2023-02-24T09:01:16;116.55;;;52.65;;
62574;SDS011;53112;45.602;11.904;2023-02-24T09:03:52;118.88;;;53.03;;
62574;SDS011;53112;45.602;11.904;2023-02-24T09:06:22;108.00;;;52.72;;
62574;SDS011;53112;45.602;11.904;2023-02-24T09:08:59;110.03;;;51.45;;
62574;SDS011;53112;45.602;11.904;2023-02-24T09:11:48;105.32;;;48.25;;
62574;SDS011;53112;45.602;11.904;2023-02-24T09:14:26;98.90;;;46.45;;
62574;SDS011;53112;45.602;11.904;2023-02-24T09:16:55;105.68;;;48.33;;
62574;SDS011;53112;45.602;11.904;2023-02-24T09:19:42;105.50;;;50.00;;
62574;SDS011;53112;45.602;11.904;2023-02-24T09:22:17;124.30;;;55.92;;
62574;SDS011;53112;45.602;11.904;2023-02-24T09:24:57;122.50;;;56.53;;
62574;SDS011;53112;45.602;11.904;2023-02-24T09:30:45;114.43;;;54.30;;
62574;SDS011;53112;45.602;11.904;2023-02-24T09:33:18;107.63;;;50.75;;
62574;SDS011;53112;45.602;11.904;2023-02-24T09:35:49;103.35;;;49.50;;
62574;SDS011;53112;45.602;11.904;2023-02-24T09:38:18;99.40;;;49.33;;
62574;SDS011;53112;45.602;11.904;2023-02-24T09:41:09;108.68;;;51.13;;
62574;SDS011;53112;45.602;11.904;2023-02-24T09:44:00;112.93;;;50.83;;
62574;SDS011;53112;45.602;11.904;2023-02-24T09:52:44;114.30;;;50.10;;
62574;SDS011;53112;45.602;11.904;2023-02-24T09:55:26;108.43;;;50.92;;
62574;SDS011;53112;45.602;11.904;2023-02-24T10:00:29;107.82;;;49.42;;
62574;SDS011;53112;45.602;11.904;2023-02-24T10:05:42;109.00;;;51.60;;
62574;SDS011;53112;45.602;11.904;2023-02-24T10:08:38;112.60;;;50.40;;
62574;SDS011;53112;45.602;11.904;2023-02-24T10:11:10;110.88;;;52.13;;
62574;SDS011;53112;45.602;11.904;2023-02-24T10:13:41;105.03;;;49.92;;
62574;SDS011;53112;45.602;11.904;2023-02-24T10:16:14;115.55;;;52.13;;
62574;SDS011;53112;45.602;11.904;2023-02-24T10:19:05;114.82;;;51.78;;
62574;SDS011;53112;45.602;11.904;2023-02-24T10:21:49;114.43;;;51.15;;
62574;SDS011;53112;45.602;11.904;2023-02-24T10:24:37;112.63;;;51.25;;
62574;SDS011;53112;45.602;11.904;2023-02-24T10:34:41;116.00;;;52.00;;
62574;SDS011;53112;45.602;11.904;2023-02-24T10:37:15;118.47;;;54.42;;
62574;SDS011;53112;45.602;11.904;2023-02-24T10:39:44;106.15;;;51.67;;
62574;SDS011;53112;45.602;11.904;2023-02-24T10:42:24;107.68;;;50.65;;
62574;SDS011;53112;45.602;11.904;2023-02-24T10:45:22;117.18;;;51.20;;
62574;SDS011;53112;45.602;11.904;2023-02-24T10:47:51;106.90;;;50.60;;
62574;SDS011;53112;45.602;11.904;2023-02-24T10:50:24;107.40;;;50.22;;
62574;SDS011;53112;45.602;11.904;2023-02-24T10:52:53;113.85;;;52.03;;
62574;SDS011;53112;45.602;11.904;2023-02-24T10:58:16;112.93;;;53.75;;
62574;SDS011;53112;45.602;11.904;2023-02-24T11:01:28;105.53;;;51.58;;
62574;SDS011;53112;45.602;11.904;2023-02-24T11:04:08;114.93;;;53.53;;
62574;SDS011;53112;45.602;11.904;2023-02-24T11:06:49;105.28;;;50.97;;
62574;SDS011;53112;45.602;11.904;2023-02-24T11:09:33;110.85;;;51.28;;
62574;SDS011;53112;45.602;11.904;2023-02-24T11:12:21;106.00;;;51.70;;
62574;SDS011;53112;45.602;11.904;2023-02-24T11:15:52;107.40;;;51.22;;
62574;SDS011;53112;45.602;11.904;2023-02-24T11:18:16;106.80;;;50.40;;
62574;SDS011;53112;45.602;11.904;2023-02-24T11:20:51;104.22;;;50.42;;
62574;SDS011;53112;45.602;11.904;2023-02-24T11:23:22;104.32;;;48.85;;
62574;SDS011;53112;45.602;11.904;2023-02-24T11:25:51;114.88;;;53.30;;
62574;SDS011;53112;45.602;11.904;2023-02-24T11:34:08;117.17;;;56.23;;
62574;SDS011;53112;45.602;11.904;2023-02-24T11:41:58;122.30;;;56.70;;
62574;SDS011;53112;45.602;11.904;2023-02-24T11:44:31;121.43;;;58.10;;
62574;SDS011;53112;45.602;11.904;2023-02-24T11:47:12;114.15;;;54.03;;
62574;SDS011;53112;45.602;11.904;2023-02-24T11:49:42;110.57;;;53.03;;
62574;SDS011;53112;45.602;11.904;2023-02-24T11:52:29;114.63;;;53.35;;
62574;SDS011;53112;45.602;11.904;2023-02-24T11:54:59;114.03;;;53.70;;
62574;SDS011;53112;45.602;11.904;2023-02-24T11:57:31;116.53;;;56.55;;
62574;SDS011;53112;45.602;11.904;2023-02-24T12:00:14;115.80;;;54.95;;
62574;SDS011;53112;45.602;11.904;2023-02-24T12:05:55;104.57;;;52.83;;
62574;SDS011;53112;45.602;11.904;2023-02-24T12:08:37;119.85;;;55.72;;
62574;SDS011;53112;45.602;11.904;2023-02-24T12:11:15;108.88;;;53.58;;
62574;SDS011;53112;45.602;11.904;2023-02-24T12:13:51;108.35;;;51.00;;
62574;SDS011;53112;45.602;11.904;2023-02-24T12:16:31;107.28;;;51.63;;
62574;SDS011;53112;45.602;11.904;2023-02-24T12:19:15;111.65;;;54.78;;
62574;SDS011;53112;45.602;11.904;2023-02-24T12:21:49;112.63;;;55.25;;
62574;SDS011;53112;45.602;11.904;2023-02-24T12:24:20;110.90;;;52.67;;
62574;SDS011;53112;45.602;11.904;2023-02-24T12:27:50;111.20;;;52.97;;
62574;SDS011;53112;45.602;11.904;2023-02-24T12:43:47;104.95;;;50.50;;
62574;SDS011;53112;45.602;11.904;2023-02-24T12:46:22;110.00;;;52.83;;
62574;SDS011;53112;45.602;11.904;2023-02-24T12:51:27;114.53;;;54.28;;
62574;SDS011;53112;45.602;11.904;2023-02-24T12:54:16;99.38;;;48.95;;
62574;SDS011;53112;45.602;11.904;2023-02-24T12:59:22;106.15;;;52.55;;
62574;SDS011;53112;45.602;11.904;2023-02-24T13:01:55;112.00;;;52.38;;
62574;SDS011;53112;45.602;11.904;2023-02-24T13:04:28;103.68;;;51.50;;
62574;SDS011;53112;45.602;11.904;2023-02-24T13:09:50;100.40;;;47.25;;
62574;SDS011;53112;45.602;11.904;2023-02-24T13:15:30;102.57;;;50.33;;
62574;SDS011;53112;45.602;11.904;2023-02-24T13:17:57;97.65;;;47.13;;
62574;SDS011;53112;45.602;11.904;2023-02-24T13:20:24;95.25;;;47.22;;
62574;SDS011;53112;45.602;11.904;2023-02-24T13:22:56;104.80;;;49.83;;
62574;SDS011;53112;45.602;11.904;2023-02-24T13:25:34;100.88;;;50.05;;
62574;SDS011;53112;45.602;11.904;2023-02-24T13:28:20;99.15;;;47.67;;
62574;SDS011;53112;45.602;11.904;2023-02-24T13:33:39;110.03;;;52.63;;
62574;SDS011;53112;45.602;11.904;2023-02-24T13:36:08;104.82;;;52.97;;
62574;SDS011;53112;45.602;11.904;2023-02-24T13:38:37;111.40;;;52.45;;
62574;SDS011;53112;45.602;11.904;2023-02-24T13:41:19;110.03;;;52.65;;
62574;SDS011;53112;45.602;11.904;2023-02-24T13:44:31;103.95;;;49.47;;
62574;SDS011;53112;45.602;11.904;2023-02-24T13:52:01;97.78;;;47.60;;
62574;SDS011;53112;45.602;11.904;2023-02-24T14:00:26;102.20;;;49.63;;
62574;SDS011;53112;45.602;11.904;2023-02-24T14:03:17;96.43;;;47.42;;
62574;SDS011;53112;45.602;11.904;2023-02-24T14:05:49;104.38;;;48.47;;
62574;SDS011;53112;45.602;11.904;2023-02-24T14:08:39;101.03;;;46.92;;
62574;SDS011;53112;45.602;11.904;2023-02-24T14:11:09;104.20;;;48.33;;
62574;SDS011;53112;45.602;11.904;2023-02-24T14:13:38;104.38;;;50.08;;
62574;SDS011;53112;45.602;11.904;2023-02-24T14:16:08;102.78;;;48.55;;
62574;SDS011;53112;45.602;11.904;2023-02-24T14:18:34;112.20;;;52.65;;
62574;SDS011;53112;45.602;11.904;2023-02-24T14:21:01;117.05;;;54.67;;
62574;SDS011;53112;45.602;11.904;2023-02-24T14:23:28;105.38;;;50.65;;
62574;SDS011;53112;45.602;11.904;2023-02-24T14:26:07;114.38;;;53.55;;
62574;SDS011;53112;45.602;11.904;2023-02-24T14:28:38;108.70;;;50.77;;
62574;SDS011;53112;45.602;11.904;2023-02-24T14:31:09;108.03;;;51.33;;
62574;SDS011;53112;45.602;11.904;2023-02-24T14:33:40;109.75;;;51.85;;
62574;SDS011;53112;45.602;11.904;2023-02-24T14:36:19;111.30;;;54.15;;
62574;SDS011;53112;45.602;11.904;2023-02-24T14:41:40;116.03;;;53.30;;
62574;SDS011;53112;45.602;11.904;2023-02-24T14:44:17;102.15;;;49.45;;
62574;SDS011;53112;45.602;11.904;2023-02-24T14:46:51;117.38;;;52.45;;
62574;SDS011;53112;45.602;11.904;2023-02-24T14:49:23;107.73;;;51.30;;
62574;SDS011;53112;45.602;11.904;2023-02-24T14:52:03;109.27;;;52.40;;
62574;SDS011;53112;45.602;11.904;2023-02-24T14:54:44;111.57;;;53.85;;
62574;SDS011;53112;45.602;11.904;2023-02-24T14:57:21;112.18;;;52.55;;
62574;SDS011;53112;45.602;11.904;2023-02-24T14:59:56;114.45;;;52.97;;
62574;SDS011;53112;45.602;11.904;2023-02-24T15:02:29;113.13;;;50.05;;
62574;SDS011;53112;45.602;11.904;2023-02-24T15:04:57;105.68;;;50.13;;
62574;SDS011;53112;45.602;11.904;2023-02-24T15:07:25;114.93;;;52.28;;
62574;SDS011;53112;45.602;11.904;2023-02-24T15:09:54;108.80;;;50.70;;
62574;SDS011;53112;45.602;11.904;2023-02-24T15:15:08;122.72;;;54.22;;
62574;SDS011;53112;45.602;11.904;2023-02-24T15:18:01;109.53;;;49.17;;
62574;SDS011;53112;45.602;11.904;2023-02-24T15:20:35;113.53;;;51.22;;
62574;SDS011;53112;45.602;11.904;2023-02-24T15:23:03;104.70;;;48.83;;
62574;SDS011;53112;45.602;11.904;2023-02-24T15:25:40;108.43;;;49.42;;
62574;SDS011;53112;45.602;11.904;2023-02-24T15:33:25;115.90;;;51.70;;
62574;SDS011;53112;45.602;11.904;2023-02-24T15:36:00;114.95;;;50.30;;
62574;SDS011;53112;45.602;11.904;2023-02-24T15:38:36;115.57;;;50.72;;
62574;SDS011;53112;45.602;11.904;2023-02-24T15:41:05;122.45;;;52.95;;
62574;SDS011;53112;45.602;11.904;2023-02-24T15:46:13;113.68;;;50.42;;
62574;SDS011;53112;45.602;11.904;2023-02-24T15:48:45;104.93;;;47.42;;
62574;SDS011;53112;45.602;11.904;2023-02-24T15:51:54;108.00;;;50.05;;
62574;SDS011;53112;45.602;11.904;2023-02-24T15:54:07;113.28;;;48.97;;
62574;SDS011;53112;45.602;11.904;2023-02-24T15:56:37;111.85;;;49.55;;
62574;SDS011;53112;45.602;11.904;2023-02-24T15:59:04;114.28;;;50.35;;
62574;SDS011;53112;45.602;11.904;2023-02-24T16:01:30;113.97;;;49.35;;
62574;SDS011;53112;45.602;11.904;2023-02-24T16:03:57;115.15;;;50.70;;
62574;SDS011;53112;45.602;11.904;2023-02-24T16:06:28;114.53;;;51.10;;
62574;SDS011;53112;45.602;11.904;2023-02-24T16:08:55;106.60;;;48.83;;
62574;SDS011;53112;45.602;11.904;2023-02-24T16:11:26;104.32;;;48.25;;
62574;SDS011;53112;45.602;11.904;2023-02-24T16:13:56;113.55;;;51.42;;
62574;SDS011;53112;45.602;11.904;2023-02-24T16:16:24;122.68;;;53.83;;
62574;SDS011;53112;45.602;11.904;2023-02-24T16:18:51;130.45;;;58.92;;
62574;SDS011;53112;45.602;11.904;2023-02-24T16:21:17;135.52;;;60.55;;
62574;SDS011;53112;45.602;11.904;2023-02-24T16:23:43;128.73;;;56.50;;
62574;SDS011;53112;45.602;11.904;2023-02-24T16:26:16;122.28;;;55.50;;
62574;SDS011;53112;45.602;11.904;2023-02-24T16:28:47;115.75;;;54.15;;
62574;SDS011;53112;45.602;11.904;2023-02-24T16:31:20;112.10;;;50.03;;
62574;SDS011;53112;45.602;11.904;2023-02-24T16:33:47;117.32;;;54.15;;
62574;SDS011;53112;45.602;11.904;2023-02-24T16:36:13;120.03;;;53.28;;
62574;SDS011;53112;45.602;11.904;2023-02-24T16:38:41;111.63;;;52.17;;
62574;SDS011;53112;45.602;11.904;2023-02-24T16:41:13;124.30;;;54.67;;
62574;SDS011;53112;45.602;11.904;2023-02-24T16:43:39;121.97;;;54.28;;
62574;SDS011;53112;45.602;11.904;2023-02-24T16:46:06;113.80;;;51.28;;
62574;SDS011;53112;45.602;11.904;2023-02-24T16:48:37;122.55;;;53.28;;
62574;SDS011;53112;45.602;11.904;2023-02-24T16:51:04;114.85;;;50.33;;